Terminal Aerodrome Forecast
Issued by NWS Twin Cities, MN

Home | Current Version | Previous Version | Graphics & Text | Print | Product List | Glossary On
Versions: 1 2 3 4 5 6 7 8 9 10 11 12 13 14 15 16 17 18
000
FTUS43 KMPX 270520
TAFEAU
TAF
KEAU 270520Z 2706/2806 07005KT P6SM BKN050
     FM271300 07013G18KT P6SM SCT050 BKN150
     FM280100 08017G25KT 6SM -RA BR BKN050 OVC100
     FM280400 06012KT 5SM -RA OVC030=

USA.gov is the U.S. government's official web portal to all federal, state and local government web resources and services.